Item Display Status Inductive CT Sensor

Mooring Depth: 20 m

 

Deployed Sensor

  • Serial Number: 4411
  • NDBC Property Number: 25272
  • Start Date: 4/19/2019 (15:50:20 Z)
  • End Date: 3/20/2020 (17:45:00 Z)
Water Temperature [°C]     6 entries per hour
Showing data from 3/20/2020 (17:00:00 Z) to 3/19/2020 (00:00:01 Z)
Previous Next [ Day | 3-Days | 7-Days ]
First Last
Prev [ Day | 3-Days | 7-Days ] Next
First Last

Start Time:     :
End Time:     :     
Time (in GMT) :00 :50 :40 :30 :20 :10
Previous Next [ Day | 3-Days | 7-Days ]
First Last
Prev [ Day | 3-Days | 7-Days ] Next
First Last


123 => good data
MM => data is determined as missing
-- => data not received/configured
Back to Top Back to Top
3/20/2020 17:00 to 16:10 26.874 26.921 26.890 26.906 26.943 26.886
3/20/2020 16:00 to 15:10 26.938 26.903 26.926 26.905 26.877 26.881
3/20/2020 15:00 to 14:10 26.864 26.879 26.914 26.862 26.930 26.915
3/20/2020 14:00 to 13:10 26.880 26.885 26.899 26.912 26.882 26.862
3/20/2020 13:00 to 12:10 26.869 26.888 26.913 26.877 26.903 26.914
3/20/2020 12:00 to 11:10 26.855 26.914 26.893 26.839 26.932 26.981
3/20/2020 11:00 to 10:10 26.915 26.954 27.002 26.852 26.917 27.022
3/20/2020 10:00 to 9:10 26.883 26.920 26.973 26.912 26.991 26.976
3/20/2020 09:00 to 8:10 26.971 26.879 27.025 26.987 26.920 26.944
3/20/2020 08:00 to 7:10 26.980 27.025 26.982 26.967 26.961 26.973
3/20/2020 07:00 to 6:10 27.022 26.884 26.919 26.936 26.920 26.910
3/20/2020 06:00 to 5:10 26.948 26.908 26.911 26.931 26.992 26.961
3/20/2020 05:00 to 4:10 27.006 26.922 26.930 26.918 26.914 26.938
3/20/2020 04:00 to 3:10 26.919 26.942 26.954 26.950 26.956 26.954
3/20/2020 03:00 to 2:10 26.953 26.945 26.929 26.954 26.978 26.970
3/20/2020 02:00 to 1:10 26.963 26.966 26.982 26.959 26.976 26.985
3/20/2020 01:00 to 0:10 26.957 26.963 27.009 26.987 26.979 26.979
3/20/2020 00:00 to 23:10 26.976 26.970 26.962 26.992 26.950 26.967
3/19/2020 23:00 to 22:10 26.972 26.990 26.993 26.981 26.992 27.003
3/19/2020 22:00 to 21:10 27.002 27.030 27.031 27.009 27.002 27.034
3/19/2020 21:00 to 20:10 27.015 27.011 27.043 27.036 27.034 27.037
3/19/2020 20:00 to 19:10 27.048 27.001 27.037 27.023 26.997 27.012
3/19/2020 19:00 to 18:10 27.031 27.036 27.038 27.023 27.051 27.017
3/19/2020 18:00 to 17:10 26.942 27.064 27.016 26.958 27.139 27.133
3/19/2020 17:00 to 16:10 27.163 26.977 27.043 27.148 27.111 27.126
3/19/2020 16:00 to 15:10 27.064 27.085 27.125 27.134 27.141 27.106
3/19/2020 15:00 to 14:10 27.077 27.098 27.094 27.083 27.129 27.077
3/19/2020 14:00 to 13:10 27.131 27.120 27.155 27.159 27.100 27.059
3/19/2020 13:00 to 12:10 27.176 27.150 27.198 27.166 27.089 27.175
3/19/2020 12:00 to 11:10 27.202 27.182 27.171 27.173 27.163 27.186
3/19/2020 11:00 to 10:10 27.124 27.278 27.152 27.234 27.234 27.263
3/19/2020 10:00 to 9:10 27.213 27.305 27.239 27.193 27.335 27.207
3/19/2020 09:00 to 8:10 27.323 27.166 27.340 27.191 27.304 27.229
3/19/2020 08:00 to 7:10 27.322 27.288 27.311 27.330 27.389 27.233
3/19/2020 07:00 to 6:10 27.217 27.354 27.282 27.351 27.386 27.325
3/19/2020 06:00 to 5:10 27.331 27.377 27.341 27.378 27.330 27.277
3/19/2020 05:00 to 4:10 27.337 27.381 27.349 27.279 27.292 27.211
3/19/2020 04:00 to 3:10 27.203 27.227 27.256 27.250 27.234 27.260
3/19/2020 03:00 to 2:10 27.224 27.230 27.266 27.266 27.267 27.247
3/19/2020 02:00 to 1:10 27.250 27.250 27.240 27.256 27.268 27.270
3/19/2020 01:00 to 0:10 27.251 27.264 27.290 27.276 27.277 27.291

 

 

 

Conductivity [S/m]     6 entries per hour
Showing data from 3/20/2020 (17:00:00 Z) to 3/19/2020 (00:00:01 Z)
Previous Next [ Day | 3-Days | 7-Days ]
First Last
Prev [ Day | 3-Days | 7-Days ] Next
First Last

Start Time:     :
End Time:     :     
Time (in GMT) :00 :50 :40 :30 :20 :10
Previous Next [ Day | 3-Days | 7-Days ]
First Last
Prev [ Day | 3-Days | 7-Days ] Next
First Last


123 => good data
MM => data is determined as missing
-- => data not received/configured
Back to Top Back to Top
3/20/2020 17:00 to 16:10 5.51673 5.52177 5.51900 5.52050 5.52442 5.51895
3/20/2020 16:00 to 15:10 5.52375 5.52008 5.52190 5.52005 5.51715 5.51741
3/20/2020 15:00 to 14:10 5.51630 5.51783 5.52167 5.51620 5.52285 5.52090
3/20/2020 14:00 to 13:10 5.51710 5.51770 5.51939 5.52029 5.51707 5.51596
3/20/2020 13:00 to 12:10 5.51604 5.51754 5.52016 5.51665 5.51910 5.52058
3/20/2020 12:00 to 11:10 5.51495 5.51696 5.51736 5.51329 5.52227 5.52727
3/20/2020 11:00 to 10:10 5.52053 5.52428 5.52992 5.51401 5.52053 5.53162
3/20/2020 10:00 to 9:10 5.51657 5.52016 5.52587 5.51913 5.52788 5.52643
3/20/2020 09:00 to 8:10 5.52550 5.51583 5.53114 5.52751 5.51963 5.52233
3/20/2020 08:00 to 7:10 5.52632 5.53109 5.52648 5.52481 5.52354 5.52526
3/20/2020 07:00 to 6:10 5.53254 5.51596 5.52027 5.52167 5.52077 5.51947
3/20/2020 06:00 to 5:10 5.52331 5.51921 5.51942 5.52103 5.52741 5.52426
3/20/2020 05:00 to 4:10 5.52902 5.52042 5.52124 5.51939 5.51937 5.52196
3/20/2020 04:00 to 3:10 5.51979 5.52233 5.52354 5.52320 5.52381 5.52381
3/20/2020 03:00 to 2:10 5.52341 5.52280 5.52122 5.52386 5.52600 5.52534
3/20/2020 02:00 to 1:10 5.52463 5.52484 5.52606 5.52415 5.52574 5.52696
3/20/2020 01:00 to 0:10 5.52394 5.52466 5.52881 5.52696 5.52598 5.52603
3/20/2020 00:00 to 23:10 5.52561 5.52476 5.52442 5.52733 5.52286 5.52439
3/19/2020 23:00 to 22:10 5.52553 5.52701 5.52701 5.52656 5.52719 5.52735
3/19/2020 22:00 to 21:10 5.52793 5.53074 5.53106 5.52846 5.52786 5.53122
3/19/2020 21:00 to 20:10 5.52902 5.52899 5.53183 5.53122 5.53061 5.53095
3/19/2020 20:00 to 19:10 5.53209 5.52719 5.53058 5.52945 5.52674 5.52809
3/19/2020 19:00 to 18:10 5.53005 5.53066 5.53074 5.52902 5.53193 5.52838
3/19/2020 18:00 to 17:10 5.52177 5.53305 5.52711 5.52241 5.54015 5.53904
3/19/2020 17:00 to 16:10 5.54334 5.52338 5.53016 5.54132 5.53724 5.53859
3/19/2020 16:00 to 15:10 5.53175 5.53432 5.53888 5.53970 5.54000 5.53663
3/19/2020 15:00 to 14:10 5.53260 5.53583 5.53506 5.53498 5.53840 5.53334
3/19/2020 14:00 to 13:10 5.53864 5.53745 5.54119 5.54193 5.53549 5.53159
3/19/2020 13:00 to 12:10 5.54355 5.54090 5.54536 5.54199 5.53371 5.54276
3/19/2020 12:00 to 11:10 5.54512 5.54313 5.54196 5.54228 5.54116 5.54411
3/19/2020 11:00 to 10:10 5.53678 5.55241 5.53978 5.55164 5.54874 5.55140
3/19/2020 10:00 to 9:10 5.54621 5.55539 5.54789 5.54278 5.55731 5.54459
3/19/2020 09:00 to 8:10 5.55608 5.53997 5.55731 5.54180 5.55411 5.54531
3/19/2020 08:00 to 7:10 5.55433 5.55055 5.55337 5.55544 5.56115 5.54523
3/19/2020 07:00 to 6:10 5.54355 5.55691 5.54972 5.55672 5.55963 5.55334
3/19/2020 06:00 to 5:10 5.55465 5.55856 5.55467 5.55912 5.55395 5.54985
3/19/2020 05:00 to 4:10 5.55507 5.55920 5.55592 5.54791 5.54964 5.54289
3/19/2020 04:00 to 3:10 5.54183 5.54366 5.54634 5.54605 5.54486 5.54621
3/19/2020 03:00 to 2:10 5.54353 5.54422 5.54741 5.54725 5.54738 5.54571
3/19/2020 02:00 to 1:10 5.54589 5.54576 5.54472 5.54587 5.54682 5.54712
3/19/2020 01:00 to 0:10 5.54515 5.54640 5.54834 5.54674 5.54725 5.54850

 

 

 

Salinity [psu]     6 entries per hour
Showing data from 3/20/2020 (17:00:00 Z) to 3/19/2020 (00:00:01 Z)
Previous Next [ Day | 3-Days | 7-Days ]
First Last
Prev [ Day | 3-Days | 7-Days ] Next
First Last

Start Time:     :
End Time:     :     
Time (in GMT) :00 :50 :40 :30 :20 :10
Previous Next [ Day | 3-Days | 7-Days ]
First Last
Prev [ Day | 3-Days | 7-Days ] Next
First Last


123 => good data
MM => data is determined as missing
-- => data not received/configured
Back to Top Back to Top
3/20/2020 17:00 to 16:10 35.09 35.09 35.09 35.09 35.09 35.09
3/20/2020 16:00 to 15:10 35.09 35.09 35.08 35.09 35.09 35.09
3/20/2020 15:00 to 14:10 35.09 35.09 35.09 35.09 35.09 35.09
3/20/2020 14:00 to 13:10 35.09 35.09 35.09 35.08 35.08 35.09
3/20/2020 13:00 to 12:10 35.09 35.08 35.08 35.08 35.08 35.08
3/20/2020 12:00 to 11:10 35.09 35.06 35.08 35.09 35.08 35.08
3/20/2020 11:00 to 10:10 35.08 35.08 35.08 35.08 35.08 35.08
3/20/2020 10:00 to 9:10 35.08 35.08 35.08 35.08 35.08 35.08
3/20/2020 09:00 to 8:10 35.08 35.08 35.08 35.08 35.07 35.07
3/20/2020 08:00 to 7:10 35.08 35.08 35.07 35.07 35.07 35.07
3/20/2020 07:00 to 6:10 35.09 35.07 35.08 35.08 35.08 35.08
3/20/2020 06:00 to 5:10 35.08 35.08 35.08 35.07 35.07 35.07
3/20/2020 05:00 to 4:10 35.07 35.08 35.08 35.07 35.08 35.08
3/20/2020 04:00 to 3:10 35.07 35.08 35.08 35.08 35.08 35.08
3/20/2020 03:00 to 2:10 35.07 35.08 35.08 35.08 35.07 35.08
3/20/2020 02:00 to 1:10 35.08 35.08 35.07 35.08 35.07 35.08
3/20/2020 01:00 to 0:10 35.08 35.08 35.07 35.07 35.07 35.07
3/20/2020 00:00 to 23:10 35.07 35.07 35.08 35.07 35.07 35.07
3/19/2020 23:00 to 22:10 35.08 35.07 35.07 35.08 35.07 35.07
3/19/2020 22:00 to 21:10 35.07 35.07 35.07 35.07 35.07 35.07
3/19/2020 21:00 to 20:10 35.07 35.07 35.07 35.07 35.07 35.07
3/19/2020 20:00 to 19:10 35.06 35.07 35.06 35.07 35.07 35.06
3/19/2020 19:00 to 18:10 35.06 35.06 35.06 35.06 35.06 35.06
3/19/2020 18:00 to 17:10 35.07 35.06 35.05 35.06 35.05 35.05
3/19/2020 17:00 to 16:10 35.06 35.06 35.06 35.06 35.05 35.05
3/19/2020 16:00 to 15:10 35.05 35.05 35.06 35.05 35.05 35.05
3/19/2020 15:00 to 14:10 35.05 35.05 35.05 35.06 35.05 35.05
3/19/2020 14:00 to 13:10 35.05 35.05 35.05 35.05 35.05 35.05
3/19/2020 13:00 to 12:10 35.05 35.05 35.05 35.05 35.05 35.05
3/19/2020 12:00 to 11:10 35.04 35.04 35.04 35.04 35.04 35.05
3/19/2020 11:00 to 10:10 35.04 35.04 35.04 35.06 35.04 35.04
3/19/2020 10:00 to 9:10 35.04 35.04 35.03 35.03 35.03 35.03
3/19/2020 09:00 to 8:10 35.03 35.03 35.02 35.03 35.03 35.02
3/19/2020 08:00 to 7:10 35.02 35.02 35.02 35.02 35.02 35.02
3/19/2020 07:00 to 6:10 35.02 35.01 35.01 35.01 35.01 35.01
3/19/2020 06:00 to 5:10 35.01 35.01 35.01 35.01 35.01 35.02
3/19/2020 05:00 to 4:10 35.01 35.01 35.01 35.00 35.01 35.02
3/19/2020 04:00 to 3:10 35.02 35.01 35.01 35.01 35.02 35.01
3/19/2020 03:00 to 2:10 35.01 35.01 35.01 35.01 35.01 35.01
3/19/2020 02:00 to 1:10 35.01 35.01 35.01 35.01 35.00 35.00
3/19/2020 01:00 to 0:10 35.01 35.00 35.00 35.00 35.00 35.00